Time;durP1;ratioP1;P1;durP2;ratioP2;P2;SDS_P1;SDS_P2;PMS_P1;PMS_P2;Temp;Humidity;BMP_temperature;BMP_pressure;BME280_temperature;BME280_humidity;BME280_pressure;Samples;Min_cycle;Max_cycle;Signal;HPM_P1;HPM_P2
2022/06/05 00:01:57;;;;;;;6.43;5.67;;;17.00;1.00;;;;;;5071882;28;20651;-62
2022/06/05 00:04:34;;;;;;;6.00;5.40;;;17.00;1.00;;;;;;5071492;28;20255;-62
2022/06/05 00:07:08;;;;;;;6.37;5.47;;;17.00;1.00;;;;;;5071701;28;20295;-62
2022/06/05 00:09:48;;;;;;;6.63;5.37;;;17.00;1.00;;;;;;5071738;28;20204;-64
2022/06/05 00:12:18;;;;;;;6.17;5.07;;;17.00;1.00;;;;;;5071909;28;20220;-62
2022/06/05 00:14:45;;;;;;;6.27;5.67;;;16.90;1.00;;;;;;5071408;28;20236;-62
2022/06/05 00:17:16;;;;;;;11.87;6.23;;;16.90;1.00;;;;;;5071833;28;20208;-62
2022/06/05 00:19:47;;;;;;;6.50;5.30;;;16.90;1.00;;;;;;5072294;28;20233;-62
2022/06/05 00:22:14;;;;;;;6.63;5.93;;;16.90;1.00;;;;;;5072140;28;20200;-62
2022/06/05 00:24:41;;;;;;;9.33;6.33;;;16.90;1.00;;;;;;5075796;28;20751;-62
2022/06/05 00:27:14;;;;;;;7.70;6.13;;;16.90;1.00;;;;;;5075140;28;20731;-62
2022/06/05 00:29:50;;;;;;;6.50;5.90;;;16.70;1.00;;;;;;5076057;28;20209;-62
2022/06/05 00:32:24;;;;;;;6.07;5.47;;;16.60;38.70;;;;;;5075494;28;20228;-62
2022/06/05 00:34:52;;;;;;;6.80;6.10;;;16.50;99.90;;;;;;5075455;28;20787;-62
2022/06/05 00:37:32;;;;;;;8.33;6.90;;;16.40;99.90;;;;;;5074999;28;20205;-62
2022/06/05 00:40:18;;;;;;;6.80;6.10;;;16.30;99.90;;;;;;5075529;28;20216;-62
2022/06/05 00:42:46;;;;;;;7.97;6.40;;;16.30;99.90;;;;;;5075207;28;20205;-62
2022/06/05 00:45:15;;;;;;;6.63;6.00;;;16.20;99.90;;;;;;5075359;28;20645;-62
2022/06/05 00:47:43;;;;;;;6.97;6.27;;;16.20;1.00;;;;;;5074925;28;20205;-62
2022/06/05 00:50:14;;;;;;;7.27;6.57;;;16.10;1.00;;;;;;5074856;28;20350;-62
2022/06/05 00:52:44;;;;;;;8.33;7.03;;;16.10;1.00;;;;;;5075320;28;20315;-62
2022/06/05 00:55:12;;;;;;;6.77;6.00;;;16.10;1.00;;;;;;5075286;28;20281;-62
2022/06/05 00:57:40;;;;;;;7.50;6.30;;;16.00;81.30;;;;;;5074927;28;20551;-62
2022/06/05 01:00:13;;;;;;;7.83;6.10;;;16.00;99.90;;;;;;5074915;28;20208;-62
2022/06/05 01:02:41;;;;;;;7.70;6.90;;;16.00;99.90;;;;;;5074905;28;20205;-62
2022/06/05 01:05:09;;;;;;;7.40;6.27;;;16.00;99.90;;;;;;5074846;28;20221;-62
2022/06/05 01:07:37;;;;;;;10.07;6.90;;;16.00;99.90;;;;;;5074839;28;20205;-62
2022/06/05 01:10:06;;;;;;;10.07;6.77;;;15.90;99.90;;;;;;5075002;28;20205;-62
2022/06/05 01:12:39;;;;;;;7.13;6.43;;;15.90;99.90;;;;;;5074604;28;20278;-62
2022/06/05 01:15:18;;;;;;;8.10;6.50;;;15.80;99.90;;;;;;5073967;28;20233;-62
2022/06/05 01:17:53;;;;;;;8.87;6.87;;;15.80;99.90;;;;;;5073269;28;20219;-62
2022/06/05 01:20:36;;;;;;;7.53;6.83;;;15.80;1.00;;;;;;5073697;28;20208;-62
2022/06/05 01:23:28;;;;;;;7.00;6.33;;;15.80;1.00;;;;;;5073244;28;20204;-63
2022/06/05 01:26:14;;;;;;;7.13;6.37;;;15.80;1.00;;;;;;5072956;28;20737;-62
2022/06/05 01:28:45;;;;;;;8.93;7.00;;;15.80;1.00;;;;;;5073396;28;20215;-62
2022/06/05 01:31:18;;;;;;;7.77;7.03;;;15.80;1.00;;;;;;5073458;28;20258;-62
2022/06/05 01:34:00;;;;;;;8.03;6.93;;;15.80;1.00;;;;;;5072809;28;20229;-62
2022/06/05 01:36:33;;;;;;;7.53;6.33;;;15.70;1.00;;;;;;5073263;28;20205;-62
2022/06/05 01:39:04;;;;;;;7.57;6.80;;;15.70;12.90;;;;;;5073237;28;20204;-62
2022/06/05 01:41:37;;;;;;;8.50;7.23;;;15.70;94.40;;;;;;5073131;28;20876;-62
2022/06/05 01:44:09;;;;;;;8.17;7.37;;;15.60;99.90;;;;;;5073032;28;20250;-62
2022/06/05 01:46:38;;;;;;;7.60;6.80;;;15.60;99.90;;;;;;5072894;28;20201;-62
2022/06/05 01:49:11;;;;;;;8.20;6.87;;;15.60;1.00;;;;;;5073216;28;20209;-62
2022/06/05 01:51:44;;;;;;;8.43;7.27;;;15.50;1.00;;;;;;5073099;28;20185;-62
2022/06/05 01:54:17;;;;;;;8.03;7.23;;;15.60;1.00;;;;;;5073414;28;20278;-62
2022/06/05 01:56:51;;;;;;;7.87;7.00;;;15.50;1.00;;;;;;5072978;28;20239;-62
2022/06/05 01:59:23;;;;;;;7.57;6.83;;;15.50;1.00;;;;;;5072853;28;20208;-62
2022/06/05 02:01:54;;;;;;;8.47;7.23;;;15.40;99.90;;;;;;5072911;28;20262;-62
2022/06/05 02:04:27;;;;;;;8.13;6.90;;;15.40;28.90;;;;;;5072712;28;20240;-62
2022/06/05 02:06:59;;;;;;;7.30;6.57;;;15.40;99.90;;;;;;5072362;28;20217;-62
2022/06/05 02:09:30;;;;;;;8.03;7.23;;;15.40;99.90;;;;;;5072392;28;20237;-62
2022/06/05 02:11:59;;;;;;;8.73;7.30;;;15.40;99.90;;;;;;5072900;28;20264;-62
2022/06/05 02:14:26;;;;;;;8.63;6.90;;;15.30;1.00;;;;;;5035698;28;1053858;-62
2022/06/05 02:16:53;;;;;;;8.50;7.70;;;15.30;99.90;;;;;;5073560;28;20639;-62
2022/06/05 02:19:22;;;;;;;9.43;8.00;;;15.30;99.90;;;;;;5073450;28;20208;-62
2022/06/05 02:21:50;;;;;;;9.03;7.00;;;15.30;1.00;;;;;;5073450;28;20296;-62
2022/06/05 02:24:17;;;;;;;8.20;7.40;;;15.20;1.00;;;;;;5073682;28;20232;-62
2022/06/05 02:26:44;;;;;;;8.60;7.70;;;15.20;1.00;;;;;;5072816;28;20208;-62
2022/06/05 02:29:16;;;;;;;8.67;7.50;;;15.20;99.90;;;;;;5073483;28;20205;-62
2022/06/05 02:32:01;;;;;;;8.70;7.30;;;15.20;1.00;;;;;;5073317;28;20205;-62
2022/06/05 02:34:39;;;;;;;9.80;8.03;;;15.10;99.90;;;;;;5073087;28;20236;-62
2022/06/05 02:37:18;;;;;;;8.50;7.70;;;15.10;99.90;;;;;;5072694;28;20209;-62
2022/06/05 02:39:53;;;;;;;8.93;7.47;;;15.10;10.90;;;;;;5073050;28;20266;-62
2022/06/05 02:42:29;;;;;;;9.07;8.17;;;15.10;55.90;;;;;;5072894;28;20204;-62
2022/06/05 02:45:05;;;;;;;10.67;8.63;;;15.00;99.90;;;;;;5072154;28;20228;-62
2022/06/05 02:47:38;;;;;;;10.17;8.43;;;14.90;99.90;;;;;;5072717;28;20211;-62
2022/06/05 02:50:11;;;;;;;11.03;8.63;;;14.90;99.90;;;;;;5073060;28;20209;-62
2022/06/05 02:52:39;;;;;;;13.00;8.07;;;14.90;99.90;;;;;;5072801;28;20279;-62
2022/06/05 02:55:09;;;;;;;10.03;8.20;;;14.90;99.90;;;;;;5072589;28;20229;-62
2022/06/05 02:57:36;;;;;;;9.57;8.43;;;14.80;99.90;;;;;;5072671;28;20197;-62
2022/06/05 03:00:08;;;;;;;10.00;8.83;;;14.80;99.90;;;;;;5072581;28;20212;-62
2022/06/05 03:05:31;;;;;;;11.17;9.30;;;14.80;99.90;;;;;;5030038;28;20558;-62
2022/06/05 03:07:58;;;;;;;9.90;8.20;;;14.80;99.90;;;;;;5062477;28;20265;-62
2022/06/05 03:10:25;;;;;;;11.53;8.80;;;14.70;1.00;;;;;;5072849;28;20267;-62
2022/06/05 03:12:52;;;;;;;11.13;8.53;;;14.70;1.00;;;;;;5072373;28;20227;-62
2022/06/05 03:15:20;;;;;;;12.90;9.17;;;14.70;1.00;;;;;;5072269;28;20294;-62
2022/06/05 03:17:46;;;;;;;9.27;8.27;;;14.70;1.00;;;;;;5071924;28;20208;-62
2022/06/05 03:20:15;;;;;;;12.13;9.90;;;14.70;1.00;;;;;;5072221;28;20547;-62
2022/06/05 03:22:42;;;;;;;10.70;8.67;;;14.70;1.00;;;;;;5072430;28;20230;-62
2022/06/05 03:25:12;;;;;;;10.07;8.13;;;14.70;1.00;;;;;;5072365;28;20233;-62
2022/06/05 03:27:38;;;;;;;10.53;8.70;;;14.70;1.00;;;;;;5071657;28;20204;-62
2022/06/05 03:30:06;;;;;;;12.57;9.10;;;14.70;1.00;;;;;;5072267;28;20261;-62
2022/06/05 03:32:34;;;;;;;10.90;9.30;;;14.70;1.00;;;;;;5072090;28;20643;-62
2022/06/05 03:35:01;;;;;;;12.20;8.93;;;14.70;1.00;;;;;;5071898;28;20225;-62
2022/06/05 03:37:27;;;;;;;10.33;9.23;;;14.70;1.00;;;;;;5072067;28;20204;-62
2022/06/05 03:39:54;;;;;;;12.10;9.57;;;14.70;1.00;;;;;;5072021;28;20204;-62
2022/06/05 03:42:21;;;;;;;11.77;9.40;;;14.80;1.00;;;;;;5072190;28;20254;-62
2022/06/05 03:44:48;;;;;;;11.40;9.33;;;14.80;1.00;;;;;;5071708;28;20314;-62
2022/06/05 03:47:14;;;;;;;10.30;9.23;;;14.80;1.00;;;;;;5071531;28;20682;-62
2022/06/05 03:49:42;;;;;;;14.03;9.20;;;14.90;1.00;;;;;;5072153;28;20208;-62
2022/06/05 03:52:10;;;;;;;11.17;9.97;;;14.90;1.00;;;;;;5072004;28;20255;-62
2022/06/05 03:54:39;;;;;;;13.57;11.07;;;14.90;99.90;;;;;;5071837;28;20293;-62
2022/06/05 03:57:07;;;;;;;12.23;9.37;;;15.00;99.90;;;;;;5071282;28;20211;-62
2022/06/05 03:59:34;;;;;;;14.90;9.87;;;15.00;99.90;;;;;;5071875;28;20273;-62
2022/06/05 04:02:01;;;;;;;10.17;8.13;;;15.10;99.90;;;;;;5071615;28;20274;-62
2022/06/05 04:04:28;;;;;;;10.20;8.70;;;15.10;99.90;;;;;;5071960;28;20225;-62
2022/06/05 04:06:56;;;;;;;9.70;8.70;;;15.20;99.90;;;;;;5071509;28;20201;-62
2022/06/05 04:09:23;;;;;;;9.90;8.90;;;15.20;99.90;;;;;;5071727;28;20752;-62
2022/06/05 04:11:49;;;;;;;10.43;8.50;;;15.30;99.90;;;;;;5071792;28;20251;-62
2022/06/05 04:14:16;;;;;;;11.77;8.37;;;15.30;99.90;;;;;;5070999;28;20286;-62
2022/06/05 04:16:43;;;;;;;10.27;8.03;;;15.30;99.90;;;;;;5071693;28;20266;-62
2022/06/05 04:19:10;;;;;;;9.00;8.03;;;15.30;99.90;;;;;;5071712;28;20262;-62
2022/06/05 04:21:38;;;;;;;9.57;7.93;;;15.30;99.90;;;;;;5071813;28;20200;-62
2022/06/05 04:24:06;;;;;;;8.97;7.93;;;15.30;99.90;;;;;;5071546;28;20307;-63
2022/06/05 04:26:35;;;;;;;8.93;8.00;;;15.40;99.90;;;;;;5071096;28;20262;-62
2022/06/05 04:29:02;;;;;;;11.43;8.60;;;15.40;99.90;;;;;;5071507;28;20208;-62
2022/06/05 04:31:31;;;;;;;10.80;7.67;;;15.40;99.90;;;;;;5071394;28;20729;-62
2022/06/05 04:34:00;;;;;;;8.27;7.37;;;15.40;99.90;;;;;;5071699;28;20232;-62
2022/06/05 04:36:27;;;;;;;10.00;7.83;;;15.50;99.90;;;;;;5071057;28;20209;-62
2022/06/05 04:38:55;;;;;;;9.57;8.27;;;15.50;99.90;;;;;;5071263;28;20208;-62
2022/06/05 04:41:24;;;;;;;9.60;7.67;;;15.50;99.90;;;;;;5071244;28;20403;-62
2022/06/05 04:43:52;;;;;;;9.23;8.27;;;15.50;99.90;;;;;;5071571;28;20228;-62
2022/06/05 04:46:20;;;;;;;9.60;7.57;;;15.50;99.90;;;;;;5071274;28;20205;-62
2022/06/05 04:48:47;;;;;;;10.00;7.83;;;15.50;99.90;;;;;;5071405;28;20261;-62
2022/06/05 04:51:14;;;;;;;9.57;7.90;;;15.50;99.90;;;;;;5071314;28;20205;-62
2022/06/05 04:53:41;;;;;;;8.33;7.43;;;15.40;99.90;;;;;;5071066;28;20233;-62
2022/06/05 04:56:12;;;;;;;9.87;7.43;;;15.50;99.90;;;;;;5071160;28;20211;-62
2022/06/05 04:58:40;;;;;;;8.80;7.20;;;15.50;99.90;;;;;;5071446;28;20205;-62
2022/06/05 05:01:11;;;;;;;8.30;7.50;;;15.60;99.90;;;;;;5071219;28;20275;-62
2022/06/05 05:03:38;;;;;;;8.63;7.40;;;15.50;99.90;;;;;;5071233;28;20639;-62
2022/06/05 05:06:05;;;;;;;7.53;6.73;;;15.60;99.90;;;;;;5070976;28;20208;-62
2022/06/05 05:08:32;;;;;;;7.67;6.97;;;15.70;99.90;;;;;;5072004;28;20463;-62
2022/06/05 05:10:59;;;;;;;8.77;6.97;;;15.70;99.90;;;;;;5074795;28;20235;-62
2022/06/05 05:13:25;;;;;;;10.10;6.97;;;15.70;54.90;;;;;;5074841;28;20224;-62
2022/06/05 05:15:55;;;;;;;8.67;7.10;;;15.70;52.70;;;;;;5074508;28;20270;-62
2022/06/05 05:18:22;;;;;;;7.30;6.60;;;15.80;99.90;;;;;;5074861;28;20693;-62
2022/06/05 05:20:49;;;;;;;8.27;7.20;;;15.90;99.90;;;;;;5074560;28;20209;-62
2022/06/05 05:23:15;;;;;;;8.27;7.40;;;15.80;31.10;;;;;;5074760;28;20201;-63
2022/06/05 05:25:42;;;;;;;7.53;6.73;;;15.90;1.00;;;;;;5074757;28;20213;-62
2022/06/05 05:28:09;;;;;;;8.50;6.83;;;15.90;28.00;;;;;;5074348;28;20208;-62
2022/06/05 05:30:37;;;;;;;11.67;6.57;;;16.00;33.30;;;;;;5074660;28;20205;-62
2022/06/05 05:33:05;;;;;;;7.57;6.77;;;16.20;1.00;;;;;;5074373;28;20209;-62
2022/06/05 05:35:32;;;;;;;7.97;6.13;;;16.20;1.00;;;;;;5074345;28;20258;-62
2022/06/05 05:37:59;;;;;;;7.37;6.60;;;16.30;1.00;;;;;;5073873;28;20709;-63
2022/06/05 05:43:10;;;;;;;6.73;6.13;;;16.40;99.90;;;;;;5074200;28;20331;-62
2022/06/05 05:45:37;;;;;;;8.03;6.53;;;16.40;99.90;;;;;;5074067;28;20266;-63
2022/06/05 05:48:05;;;;;;;8.03;6.77;;;16.50;99.90;;;;;;5073947;28;20616;-62
2022/06/05 05:50:32;;;;;;;6.73;6.13;;;16.60;99.90;;;;;;5073807;28;20728;-63
2022/06/05 05:52:59;;;;;;;7.83;7.03;;;16.70;90.10;;;;;;5074189;28;20231;-63
2022/06/05 05:55:25;;;;;;;8.07;6.67;;;16.70;39.10;;;;;;5074011;28;20356;-62
2022/06/05 05:57:52;;;;;;;6.97;6.27;;;16.80;1.00;;;;;;5073744;28;20273;-62
2022/06/05 06:00:20;;;;;;;9.87;6.70;;;16.90;1.00;;;;;;5073990;28;20562;-62
2022/06/05 06:02:47;;;;;;;7.70;6.10;;;17.00;99.90;;;;;;5073551;28;20255;-62
2022/06/05 06:05:17;;;;;;;7.30;6.60;;;17.00;20.30;;;;;;5073952;28;20270;-62
2022/06/05 06:07:44;;;;;;;7.83;6.50;;;17.10;1.00;;;;;;5073585;28;20205;-63
2022/06/05 06:10:11;;;;;;;7.50;6.77;;;17.10;99.90;;;;;;5073639;28;20213;-62
2022/06/05 06:12:38;;;;;;;6.80;6.10;;;17.20;99.90;;;;;;5073564;28;20205;-62
2022/06/05 06:15:06;;;;;;;7.20;6.50;;;17.20;48.50;;;;;;5073392;28;20306;-62
2022/06/05 06:17:32;;;;;;;11.30;7.43;;;17.20;99.90;;;;;;5073428;28;20205;-62
2022/06/05 06:19:59;;;;;;;7.97;7.07;;;17.20;87.90;;;;;;5072348;28;20251;-62
2022/06/05 06:22:27;;;;;;;7.70;6.90;;;17.30;1.00;;;;;;5073716;28;20209;-62
2022/06/05 06:24:54;;;;;;;7.60;6.37;;;17.30;1.00;;;;;;5073142;28;20221;-62
2022/06/05 06:27:20;;;;;;;8.20;6.83;;;17.40;1.00;;;;;;5073375;28;20208;-62
2022/06/05 06:29:47;;;;;;;8.23;6.53;;;17.40;99.90;;;;;;5073183;28;20250;-62
2022/06/05 06:32:14;;;;;;;7.73;6.67;;;17.40;99.90;;;;;;5073625;28;20270;-62
2022/06/05 06:34:41;;;;;;;7.47;6.77;;;17.40;99.90;;;;;;5073049;28;20237;-62
2022/06/05 06:37:08;;;;;;;8.17;6.70;;;17.50;99.90;;;;;;5073008;28;20212;-62
2022/06/05 06:39:36;;;;;;;7.80;6.50;;;17.50;47.60;;;;;;5073169;28;20756;-62
2022/06/05 06:42:03;;;;;;;8.77;6.87;;;17.60;74.40;;;;;;5072968;28;20274;-62
2022/06/05 06:44:30;;;;;;;7.53;6.77;;;17.60;99.80;;;;;;5072968;28;20594;-62
2022/06/05 06:46:56;;;;;;;7.20;6.50;;;17.60;1.00;;;;;;5065458;28;21099;-61
2022/06/05 06:49:23;;;;;;;7.03;6.37;;;17.60;1.00;;;;;;5071192;28;20824;-61
2022/06/05 06:51:49;;;;;;;7.73;6.70;;;17.50;1.00;;;;;;5072133;28;20209;-61
2022/06/05 06:54:16;;;;;;;7.67;6.77;;;17.50;1.00;;;;;;5072352;28;20675;-63
2022/06/05 06:56:44;;;;;;;8.57;6.80;;;17.50;1.00;;;;;;5072194;28;20208;-62
2022/06/05 06:59:11;;;;;;;11.47;7.10;;;17.50;62.80;;;;;;5072036;28;20581;-60
2022/06/05 07:01:38;;;;;;;9.67;7.37;;;17.40;1.00;;;;;;5072626;28;20586;-61
2022/06/05 07:04:05;;;;;;;8.60;7.60;;;17.30;1.00;;;;;;5072142;28;20224;-60
2022/06/05 07:06:31;;;;;;;8.50;7.27;;;17.40;1.00;;;;;;5071891;28;20688;-60
2022/06/05 07:08:58;;;;;;;8.50;7.30;;;17.40;1.00;;;;;;5071959;28;20232;-60
2022/06/05 07:11:25;;;;;;;7.90;7.10;;;17.40;1.00;;;;;;5071920;28;20204;-61
2022/06/05 07:13:53;;;;;;;8.37;7.03;;;17.40;1.00;;;;;;5072142;28;20229;-61
2022/06/05 07:16:21;;;;;;;9.47;7.90;;;17.50;1.00;;;;;;5071556;28;20213;-61
2022/06/05 07:18:48;;;;;;;8.03;7.20;;;17.50;1.00;;;;;;5071756;28;20204;-60
2022/06/05 07:21:17;;;;;;;8.47;7.53;;;17.60;1.00;;;;;;5071829;28;20299;-63
2022/06/05 07:23:44;;;;;;;10.47;7.53;;;17.70;1.00;;;;;;5071955;28;20225;-63
2022/06/05 07:26:12;;;;;;;8.80;7.77;;;17.60;1.00;;;;;;5071265;28;20885;-61
2022/06/05 07:28:39;;;;;;;8.20;7.40;;;17.60;1.00;;;;;;5072427;28;20254;-62
2022/06/05 07:31:09;;;;;;;10.07;7.80;;;17.70;1.00;;;;;;5071132;28;20208;-63
2022/06/05 07:33:36;;;;;;;13.57;9.23;;;17.80;1.00;;;;;;5072091;28;20281;-62
2022/06/05 07:36:06;;;;;;;9.90;7.30;;;17.80;1.00;;;;;;5071940;28;20589;-61
2022/06/05 07:38:34;;;;;;;8.97;7.20;;;17.90;99.90;;;;;;5071216;28;20213;-62
2022/06/05 07:41:01;;;;;;;9.60;7.23;;;18.00;1.00;;;;;;5071784;28;20209;-61
2022/06/05 07:43:28;;;;;;;8.10;7.30;;;18.00;99.90;;;;;;5071774;28;20229;-62
2022/06/05 07:45:56;;;;;;;9.70;7.90;;;18.10;1.00;;;;;;5071259;28;20220;-63
2022/06/05 07:48:24;;;;;;;8.20;7.33;;;18.10;99.90;;;;;;5071543;28;20277;-64
2022/06/05 07:56:30;;;;;;;7.90;7.03;;;18.50;99.90;;;;;;5071093;28;20220;-59
2022/06/05 07:58:56;;;;;;;8.63;7.83;;;18.70;99.90;;;;;;5071437;28;20288;-59
2022/06/05 08:01:23;;;;;;;9.83;7.00;;;18.70;99.90;;;;;;5071347;28;20620;-59
2022/06/05 08:03:51;;;;;;;8.53;7.37;;;18.70;99.90;;;;;;5071281;28;20715;-59
2022/06/05 08:06:17;;;;;;;9.53;7.13;;;18.80;99.90;;;;;;5071278;28;20589;-59
2022/06/05 08:08:44;;;;;;;15.73;7.43;;;18.80;99.90;;;;;;5071268;28;20643;-59
2022/06/05 08:11:11;;;;;;;8.37;7.40;;;18.90;99.90;;;;;;5071496;28;20200;-60
2022/06/05 08:13:38;;;;;;;7.93;7.13;;;19.10;99.90;;;;;;5071189;28;20640;-59
2022/06/05 08:16:06;;;;;;;8.13;7.17;;;19.20;18.10;;;;;;5070709;28;20213;-59
2022/06/05 08:18:32;;;;;;;8.60;7.40;;;19.50;9.80;;;;;;5071299;28;20204;-60
2022/06/05 08:21:00;;;;;;;7.80;6.83;;;19.70;1.00;;;;;;5070833;28;20213;-65
2022/06/05 08:23:27;;;;;;;8.00;7.20;;;19.80;1.00;;;;;;5070663;28;20225;-61
2022/06/05 08:25:53;;;;;;;8.40;6.70;;;20.00;1.00;;;;;;5071020;28;20205;-61
2022/06/05 08:28:20;;;;;;;8.03;6.97;;;20.20;1.00;;;;;;5071621;28;20209;-60
2022/06/05 08:30:47;;;;;;;9.73;6.60;;;20.50;1.00;;;;;;5071645;28;20300;-60
2022/06/05 08:33:14;;;;;;;10.60;6.87;;;20.70;1.00;;;;;;5071451;28;20299;-60
2022/06/05 08:35:40;;;;;;;8.23;6.93;;;21.00;1.00;;;;;;5071456;28;20634;-61
2022/06/05 08:43:56;;;;;;;7.70;6.90;;;21.10;1.00;;;;;;5072729;28;20597;-60
2022/06/05 08:46:29;;;;;;;7.47;6.37;;;21.30;1.00;;;;;;5075111;28;20208;-60
2022/06/05 08:48:59;;;;;;;8.13;6.00;;;21.60;1.00;;;;;;5075269;28;20254;-61
2022/06/05 08:51:40;;;;;;;7.60;6.80;;;21.70;99.90;;;;;;5075069;28;20201;-61
2022/06/05 08:54:14;;;;;;;10.23;6.60;;;21.70;99.90;;;;;;5075105;28;20626;-61
2022/06/05 08:56:44;;;;;;;7.10;6.40;;;21.80;99.90;;;;;;5075021;28;20209;-61
2022/06/05 08:59:17;;;;;;;7.40;6.70;;;21.80;99.90;;;;;;5075264;28;20227;-61
2022/06/05 09:01:52;;;;;;;11.53;6.93;;;21.70;1.00;;;;;;5074774;28;20995;-61
2022/06/05 09:04:26;;;;;;;7.53;6.83;;;21.90;1.00;;;;;;5074966;28;20220;-61
2022/06/05 09:06:56;;;;;;;8.50;6.67;;;22.10;99.90;;;;;;5074598;28;20281;-61
2022/06/05 09:09:27;;;;;;;7.47;6.77;;;22.30;99.90;;;;;;5075080;28;20269;-60
2022/06/05 09:11:59;;;;;;;6.80;6.10;;;22.30;99.90;;;;;;5074685;28;20805;-61
2022/06/05 09:14:32;;;;;;;7.33;6.63;;;22.30;99.90;;;;;;5074434;28;20228;-61
2022/06/05 09:17:04;;;;;;;6.87;6.27;;;22.30;99.90;;;;;;5074606;28;20209;-61
2022/06/05 09:19:31;;;;;;;9.27;6.83;;;22.30;99.90;;;;;;5074780;28;20251;-61
2022/06/05 09:22:04;;;;;;;10.50;6.97;;;22.40;99.90;;;;;;5074885;28;20209;-59
2022/06/05 09:24:43;;;;;;;8.47;6.30;;;22.40;99.90;;;;;;5074455;28;20225;-60
2022/06/05 09:27:19;;;;;;;6.43;5.80;;;22.50;99.90;;;;;;5074631;28;20189;-58
2022/06/05 09:29:53;;;;;;;7.50;6.50;;;22.40;99.90;;;;;;5074416;28;20689;-58
2022/06/05 09:32:43;;;;;;;7.03;6.33;;;22.40;99.90;;;;;;5074553;28;20213;-59
2022/06/05 09:35:20;;;;;;;7.90;6.40;;;22.40;99.90;;;;;;5073968;28;20279;-59
2022/06/05 09:37:51;;;;;;;6.63;6.03;;;22.30;1.00;;;;;;5074002;28;20205;-61
2022/06/05 09:40:24;;;;;;;6.77;6.07;;;22.50;99.90;;;;;;5074463;28;20262;-59
2022/06/05 09:43:16;;;;;;;6.90;6.30;;;22.50;99.90;;;;;;5074601;28;20338;-60
2022/06/05 09:45:55;;;;;;;7.13;6.27;;;22.40;1.00;;;;;;5067420;28;20951;-60
2022/06/05 09:48:31;;;;;;;7.13;6.23;;;22.30;1.00;;;;;;5073617;28;20270;-62
2022/06/05 09:50:58;;;;;;;6.97;6.27;;;22.20;1.00;;;;;;5073666;28;20209;-61
2022/06/05 09:53:31;;;;;;;7.57;6.80;;;22.20;1.00;;;;;;5073729;28;21924;-62
2022/06/05 09:56:13;;;;;;;7.47;6.77;;;22.10;1.00;;;;;;5072933;28;20652;-65
2022/06/05 09:59:05;;;;;;;8.93;6.13;;;22.10;1.00;;;;;;5072286;28;20205;-64
2022/06/05 10:01:36;;;;;;;6.50;5.90;;;22.10;1.00;;;;;;5070941;28;20209;-58
2022/06/05 10:04:06;;;;;;;7.67;6.60;;;22.10;1.00;;;;;;5073752;28;20225;-60
2022/06/05 10:06:39;;;;;;;6.60;6.00;;;22.10;1.00;;;;;;5073689;28;20208;-60
2022/06/05 10:09:12;;;;;;;7.77;6.70;;;21.90;1.00;;;;;;5073670;28;20204;-60
2022/06/05 10:11:50;;;;;;;7.20;6.50;;;21.40;1.00;;;;;;5073845;28;20211;-60
2022/06/05 10:14:31;;;;;;;6.57;5.93;;;21.20;1.00;;;;;;5073223;28;20228;-59
2022/06/05 10:17:19;;;;;;;6.60;6.03;;;21.00;1.00;;;;;;5072924;28;20209;-60
2022/06/05 10:20:00;;;;;;;6.93;6.23;;;21.00;1.00;;;;;;5071470;28;20213;-62
2022/06/05 10:22:33;;;;;;;8.77;6.80;;;20.90;1.00;;;;;;5073188;28;20675;-59
2022/06/05 10:25:19;;;;;;;8.17;7.07;;;21.00;36.90;;;;;;5073159;28;20278;-60
2022/06/05 10:27:51;;;;;;;9.23;7.23;;;21.10;99.90;;;;;;5072937;28;20607;-62
2022/06/05 10:30:20;;;;;;;8.27;7.13;;;21.10;99.90;;;;;;5073264;28;20679;-61
2022/06/05 10:32:53;;;;;;;7.53;6.73;;;21.30;99.90;;;;;;5072900;28;20235;-64
2022/06/05 10:35:25;;;;;;;10.43;7.40;;;21.30;99.90;;;;;;5072838;28;20229;-64
2022/06/05 10:37:57;;;;;;;8.00;7.30;;;21.40;99.90;;;;;;5071834;28;20623;-64
2022/06/05 10:40:30;;;;;;;8.43;7.60;;;21.30;99.90;;;;;;5072995;28;20813;-64
2022/06/05 10:43:02;;;;;;;8.10;7.40;;;21.10;1.00;;;;;;5072730;28;20232;-60
2022/06/05 10:45:40;;;;;;;8.43;7.63;;;21.10;93.00;;;;;;5072597;28;20217;-61
2022/06/05 10:48:17;;;;;;;8.07;7.27;;;21.00;99.90;;;;;;5071958;28;20204;-61
2022/06/05 10:50:52;;;;;;;8.70;7.43;;;20.90;99.90;;;;;;5072148;28;20311;-61
2022/06/05 10:53:26;;;;;;;9.47;7.70;;;21.00;99.90;;;;;;5072781;28;20205;-62
2022/06/05 10:56:15;;;;;;;8.60;7.70;;;21.00;1.00;;;;;;5071855;28;20220;-61
2022/06/05 10:58:50;;;;;;;9.00;8.20;;;21.00;1.00;;;;;;5072097;28;20213;-61
2022/06/05 11:01:49;;;;;;;11.43;7.57;;;21.20;99.90;;;;;;5072689;28;20809;-61
2022/06/05 11:04:28;;;;;;;8.83;7.93;;;21.10;99.90;;;;;;5072576;28;20225;-63
2022/06/05 11:07:02;;;;;;;9.30;8.03;;;21.00;99.90;;;;;;5071302;28;20736;-59
2022/06/05 11:09:40;;;;;;;9.60;7.70;;;21.00;1.00;;;;;;5072322;28;20209;-61
2022/06/05 11:15:09;;;;;;;8.90;8.00;;;20.70;99.90;;;;;;5072646;28;20235;-61
2022/06/05 11:17:43;;;;;;;9.07;8.17;;;20.60;99.90;;;;;;5071862;28;20205;-60
2022/06/05 11:20:14;;;;;;;9.00;8.13;;;20.40;99.90;;;;;;5072227;28;20192;-61
2022/06/05 11:22:47;;;;;;;9.00;8.10;;;20.30;1.00;;;;;;5072251;28;20235;-60
2022/06/05 11:25:23;;;;;;;8.93;8.03;;;20.20;99.90;;;;;;5071769;28;20228;-61
2022/06/05 11:27:59;;;;;;;8.97;7.50;;;20.10;99.90;;;;;;5071513;28;20200;-61
2022/06/05 11:30:35;;;;;;;8.40;7.60;;;20.10;99.90;;;;;;5071747;28;20212;-60
2022/06/05 11:33:10;;;;;;;7.97;6.70;;;20.20;99.90;;;;;;5071851;28;20665;-61
2022/06/05 11:35:49;;;;;;;8.43;7.53;;;20.10;99.90;;;;;;5071536;28;20220;-60
2022/06/05 11:38:24;;;;;;;9.63;7.43;;;20.30;99.90;;;;;;5070880;28;20203;-61
2022/06/05 11:40:59;;;;;;;8.10;7.30;;;20.30;99.90;;;;;;5071783;28;20204;-61
2022/06/05 11:43:31;;;;;;;9.93;8.43;;;20.20;1.00;;;;;;5071550;28;20236;-61
2022/06/05 11:46:09;;;;;;;10.03;8.93;;;20.20;1.00;;;;;;5071171;28;20628;-61
2022/06/05 11:48:40;;;;;;;9.30;8.40;;;20.20;1.00;;;;;;5070858;28;20293;-61
2022/06/05 11:51:19;;;;;;;9.23;8.23;;;20.00;1.00;;;;;;5071452;28;20235;-61
2022/06/05 11:53:56;;;;;;;10.77;8.37;;;20.10;1.00;;;;;;5071390;28;20221;-61
2022/06/05 11:56:37;;;;;;;9.80;8.80;;;20.20;1.00;;;;;;5072320;28;20220;-61
2022/06/05 11:59:17;;;;;;;9.80;8.40;;;20.30;1.00;;;;;;5071512;28;20208;-61
2022/06/05 12:01:52;;;;;;;9.93;8.90;;;20.20;1.00;;;;;;5071340;28;20254;-62
2022/06/05 12:04:25;;;;;;;10.00;9.00;;;20.10;1.00;;;;;;5071513;28;20232;-61
2022/06/05 12:06:55;;;;;;;11.17;9.80;;;20.10;1.00;;;;;;5070715;28;20737;-61
2022/06/05 12:09:24;;;;;;;11.37;10.13;;;20.10;1.00;;;;;;5070800;28;20728;-60
2022/06/05 12:11:57;;;;;;;10.93;9.83;;;20.00;1.00;;;;;;5071238;28;20262;-61
2022/06/05 12:14:28;;;;;;;11.47;9.80;;;20.10;1.00;;;;;;5071327;28;20286;-60
2022/06/05 12:17:06;;;;;;;16.53;12.37;;;20.40;1.00;;;;;;5070576;28;20236;-59
2022/06/05 12:19:44;;;;;;;10.33;9.17;;;20.70;1.00;;;;;;5075182;28;20204;-59
2022/06/05 12:22:17;;;;;;;9.90;9.00;;;20.80;1.00;;;;;;5075352;28;20270;-57
2022/06/05 12:24:48;;;;;;;9.67;8.67;;;20.90;99.90;;;;;;5075150;28;20456;-59
2022/06/05 12:27:17;;;;;;;10.63;9.13;;;20.90;99.90;;;;;;5074778;28;20657;-59
2022/06/05 12:29:50;;;;;;;10.00;8.40;;;21.20;99.90;;;;;;5074896;28;20205;-59
2022/06/05 12:32:26;;;;;;;9.00;8.20;;;21.50;99.90;;;;;;5074825;28;20266;-59
2022/06/05 12:34:59;;;;;;;9.03;7.37;;;21.60;1.00;;;;;;5075053;28;20232;-61
2022/06/05 12:37:29;;;;;;;9.23;8.10;;;21.80;1.00;;;;;;5074474;28;20204;-61
2022/06/05 12:39:57;;;;;;;8.90;8.00;;;21.90;1.00;;;;;;5074460;28;20266;-61
2022/06/05 12:42:34;;;;;;;9.43;8.53;;;22.10;99.90;;;;;;5074664;28;20212;-61
2022/06/05 12:45:04;;;;;;;8.73;7.93;;;22.00;99.90;;;;;;5075018;28;20278;-61
2022/06/05 12:48:05;;;;;;;9.00;8.10;;;22.30;99.90;;;;;;5074331;28;20208;-61
2022/06/05 12:50:40;;;;;;;8.80;7.87;;;22.30;81.80;;;;;;5074518;28;20204;-61
2022/06/05 12:53:18;;;;;;;9.63;8.73;;;22.30;1.00;;;;;;5074412;28;20200;-61
2022/06/05 12:55:49;;;;;;;9.33;8.30;;;22.30;99.90;;;;;;5074829;28;20666;-61
2022/06/05 12:58:21;;;;;;;9.20;7.57;;;22.20;1.00;;;;;;5074048;28;20215;-61
2022/06/05 13:00:54;;;;;;;8.40;7.50;;;22.30;1.00;;;;;;5074611;28;20212;-60
2022/06/05 13:03:30;;;;;;;7.47;6.77;;;22.20;99.90;;;;;;5074257;28;20258;-60
2022/06/05 13:06:03;;;;;;;7.83;7.03;;;22.40;99.90;;;;;;5074047;28;20208;-61
2022/06/05 13:08:38;;;;;;;7.63;6.50;;;22.60;99.90;;;;;;5074222;28;20205;-60
2022/06/05 13:11:11;;;;;;;7.33;6.60;;;22.80;99.90;;;;;;5073294;28;20212;-63
2022/06/05 13:13:46;;;;;;;8.40;6.60;;;23.00;1.00;;;;;;5074192;28;20232;-62
2022/06/05 13:16:24;;;;;;;7.37;6.60;;;23.10;1.00;;;;;;5073302;28;20247;-63
2022/06/05 13:19:05;;;;;;;7.00;6.30;;;23.00;1.00;;;;;;5073502;28;20208;-62
2022/06/05 13:21:38;;;;;;;7.90;6.60;;;22.80;1.00;;;;;;5074256;28;20208;-62
2022/06/05 13:24:18;;;;;;;7.97;7.00;;;22.90;1.00;;;;;;5073928;28;20221;-63
2022/06/05 13:26:57;;;;;;;9.77;6.80;;;22.60;1.00;;;;;;5074007;28;20205;-62
2022/06/05 13:29:39;;;;;;;7.67;6.97;;;22.60;1.00;;;;;;5072832;28;20679;-62
2022/06/05 13:32:12;;;;;;;8.23;7.43;;;22.30;1.00;;;;;;5073831;28;20208;-62